sensor_id;sensor_type;location;lat;lon;timestamp;P1;P2;P0
65012;PMS5003;51715;39.432;-77.518;2023-12-20T00:00:10;3;3;
65012;PMS5003;51715;39.432;-77.518;2023-12-20T00:02:40;2;2;
65012;PMS5003;51715;39.432;-77.518;2023-12-20T00:05:09;1;1;
65012;PMS5003;51715;39.432;-77.518;2023-12-20T00:07:37;1;1;
65012;PMS5003;51715;39.432;-77.518;2023-12-20T00:10:07;0;0;
65012;PMS5003;51715;39.432;-77.518;2023-12-20T00:12:37;2;2;
65012;PMS5003;51715;39.432;-77.518;2023-12-20T00:15:09;2;0;
65012;PMS5003;51715;39.432;-77.518;2023-12-20T00:17:41;3;3;
65012;PMS5003;51715;39.432;-77.518;2023-12-20T00:20:13;1;1;
65012;PMS5003;51715;39.432;-77.518;2023-12-20T00:22:41;3;2;
65012;PMS5003;51715;39.432;-77.518;2023-12-20T00:25:12;1;1;
65012;PMS5003;51715;39.432;-77.518;2023-12-20T00:27:42;2;2;
65012;PMS5003;51715;39.432;-77.518;2023-12-20T00:30:14;2;2;
65012;PMS5003;51715;39.432;-77.518;2023-12-20T00:32:46;4;3;
65012;PMS5003;51715;39.432;-77.518;2023-12-20T00:35:18;2;2;
65012;PMS5003;51715;39.432;-77.518;2023-12-20T00:37:48;2;2;
65012;PMS5003;51715;39.432;-77.518;2023-12-20T00:40:21;3;3;
65012;PMS5003;51715;39.432;-77.518;2023-12-20T00:42:55;3;3;
65012;PMS5003;51715;39.432;-77.518;2023-12-20T00:45:25;4;4;
65012;PMS5003;51715;39.432;-77.518;2023-12-20T00:47:58;3;3;
65012;PMS5003;51715;39.432;-77.518;2023-12-20T00:50:32;3;3;
65012;PMS5003;51715;39.432;-77.518;2023-12-20T00:53:02;3;3;
65012;PMS5003;51715;39.432;-77.518;2023-12-20T00:55:31;5;5;
65012;PMS5003;51715;39.432;-77.518;2023-12-20T00:58:02;2;2;
65012;PMS5003;51715;39.432;-77.518;2023-12-20T01:00:35;3;3;
65012;PMS5003;51715;39.432;-77.518;2023-12-20T01:03:07;3;3;
65012;PMS5003;51715;39.432;-77.518;2023-12-20T01:05:36;1;1;
65012;PMS5003;51715;39.432;-77.518;2023-12-20T01:08:05;4;3;
65012;PMS5003;51715;39.432;-77.518;2023-12-20T01:10:34;4;4;
65012;PMS5003;51715;39.432;-77.518;2023-12-20T01:13:05;3;3;
65012;PMS5003;51715;39.432;-77.518;2023-12-20T01:15:35;4;2;
65012;PMS5003;51715;39.432;-77.518;2023-12-20T01:18:06;6;4;
65012;PMS5003;51715;39.432;-77.518;2023-12-20T01:20:39;4;4;
65012;PMS5003;51715;39.432;-77.518;2023-12-20T01:23:13;4;4;
65012;PMS5003;51715;39.432;-77.518;2023-12-20T01:25:44;2;2;
65012;PMS5003;51715;39.432;-77.518;2023-12-20T01:28:14;4;4;
65012;PMS5003;51715;39.432;-77.518;2023-12-20T01:30:47;4;4;
65012;PMS5003;51715;39.432;-77.518;2023-12-20T01:33:16;4;2;
65012;PMS5003;51715;39.432;-77.518;2023-12-20T01:35:45;4;4;
65012;PMS5003;51715;39.432;-77.518;2023-12-20T01:38:15;4;3;
65012;PMS5003;51715;39.432;-77.518;2023-12-20T01:40:44;3;3;
65012;PMS5003;51715;39.432;-77.518;2023-12-20T01:43:13;4;4;
65012;PMS5003;51715;39.432;-77.518;2023-12-20T01:45:42;6;3;
65012;PMS5003;51715;39.432;-77.518;2023-12-20T01:48:11;3;3;
65012;PMS5003;51715;39.432;-77.518;2023-12-20T01:50:43;4;4;
65012;PMS5003;51715;39.432;-77.518;2023-12-20T01:53:13;3;3;
65012;PMS5003;51715;39.432;-77.518;2023-12-20T01:55:44;3;3;
65012;PMS5003;51715;39.432;-77.518;2023-12-20T01:58:12;4;4;
65012;PMS5003;51715;39.432;-77.518;2023-12-20T02:00:43;3;3;
65012;PMS5003;51715;39.432;-77.518;2023-12-20T02:03:13;3;3;
65012;PMS5003;51715;39.432;-77.518;2023-12-20T02:05:41;5;4;
65012;PMS5003;51715;39.432;-77.518;2023-12-20T02:08:12;4;4;
65012;PMS5003;51715;39.432;-77.518;2023-12-20T02:10:41;3;3;
65012;PMS5003;51715;39.432;-77.518;2023-12-20T02:13:10;2;2;
65012;PMS5003;51715;39.432;-77.518;2023-12-20T02:15:38;6;5;
65012;PMS5003;51715;39.432;-77.518;2023-12-20T02:18:06;2;2;
65012;PMS5003;51715;39.432;-77.518;2023-12-20T02:20:36;6;5;
65012;PMS5003;51715;39.432;-77.518;2023-12-20T02:23:04;5;5;
65012;PMS5003;51715;39.432;-77.518;2023-12-20T02:25:32;4;4;
65012;PMS5003;51715;39.432;-77.518;2023-12-20T02:28:01;6;6;
65012;PMS5003;51715;39.432;-77.518;2023-12-20T02:30:31;6;6;
65012;PMS5003;51715;39.432;-77.518;2023-12-20T02:33:01;5;5;
65012;PMS5003;51715;39.432;-77.518;2023-12-20T02:35:34;5;5;
65012;PMS5003;51715;39.432;-77.518;2023-12-20T02:38:04;5;4;
65012;PMS5003;51715;39.432;-77.518;2023-12-20T02:40:34;7;5;
65012;PMS5003;51715;39.432;-77.518;2023-12-20T02:43:03;4;4;
65012;PMS5003;51715;39.432;-77.518;2023-12-20T02:45:32;5;5;
65012;PMS5003;51715;39.432;-77.518;2023-12-20T02:48:01;5;5;
65012;PMS5003;51715;39.432;-77.518;2023-12-20T02:50:29;5;5;
65012;PMS5003;51715;39.432;-77.518;2023-12-20T02:52:59;4;4;
65012;PMS5003;51715;39.432;-77.518;2023-12-20T02:55:29;2;2;
65012;PMS5003;51715;39.432;-77.518;2023-12-20T02:58:03;4;4;
65012;PMS5003;51715;39.432;-77.518;2023-12-20T03:00:32;5;3;
65012;PMS5003;51715;39.432;-77.518;2023-12-20T03:03:01;3;3;
65012;PMS5003;51715;39.432;-77.518;2023-12-20T03:05:30;5;4;
65012;PMS5003;51715;39.432;-77.518;2023-12-20T03:08:00;6;6;
65012;PMS5003;51715;39.432;-77.518;2023-12-20T03:10:28;5;5;
65012;PMS5003;51715;39.432;-77.518;2023-12-20T03:12:59;7;5;
65012;PMS5003;51715;39.432;-77.518;2023-12-20T03:15:27;2;2;
65012;PMS5003;51715;39.432;-77.518;2023-12-20T03:17:56;4;4;
65012;PMS5003;51715;39.432;-77.518;2023-12-20T03:20:24;6;4;
65012;PMS5003;51715;39.432;-77.518;2023-12-20T03:22:54;5;5;
65012;PMS5003;51715;39.432;-77.518;2023-12-20T03:25:25;4;4;
65012;PMS5003;51715;39.432;-77.518;2023-12-20T03:27:56;5;5;
65012;PMS5003;51715;39.432;-77.518;2023-12-20T03:30:25;3;3;
65012;PMS5003;51715;39.432;-77.518;2023-12-20T03:32:54;4;4;
65012;PMS5003;51715;39.432;-77.518;2023-12-20T03:35:23;5;5;
65012;PMS5003;51715;39.432;-77.518;2023-12-20T03:37:51;5;5;
65012;PMS5003;51715;39.432;-77.518;2023-12-20T03:40:24;3;3;
65012;PMS5003;51715;39.432;-77.518;2023-12-20T03:42:54;6;4;
65012;PMS5003;51715;39.432;-77.518;2023-12-20T03:45:22;4;4;
65012;PMS5003;51715;39.432;-77.518;2023-12-20T03:47:51;3;3;
65012;PMS5003;51715;39.432;-77.518;2023-12-20T03:50:21;6;4;
65012;PMS5003;51715;39.432;-77.518;2023-12-20T03:52:49;6;3;
65012;PMS5003;51715;39.432;-77.518;2023-12-20T03:55:18;6;5;
65012;PMS5003;51715;39.432;-77.518;2023-12-20T03:57:47;5;5;
65012;PMS5003;51715;39.432;-77.518;2023-12-20T04:00:16;6;6;
65012;PMS5003;51715;39.432;-77.518;2023-12-20T04:02:45;4;3;
65012;PMS5003;51715;39.432;-77.518;2023-12-20T04:05:14;4;4;
65012;PMS5003;51715;39.432;-77.518;2023-12-20T04:07:44;4;4;
65012;PMS5003;51715;39.432;-77.518;2023-12-20T04:10:14;7;6;
65012;PMS5003;51715;39.432;-77.518;2023-12-20T04:12:42;5;5;
65012;PMS5003;51715;39.432;-77.518;2023-12-20T04:15:11;6;6;
65012;PMS5003;51715;39.432;-77.518;2023-12-20T04:17:41;7;6;
65012;PMS5003;51715;39.432;-77.518;2023-12-20T04:20:11;11;6;
65012;PMS5003;51715;39.432;-77.518;2023-12-20T04:22:39;5;5;
65012;PMS5003;51715;39.432;-77.518;2023-12-20T04:25:08;4;4;
65012;PMS5003;51715;39.432;-77.518;2023-12-20T04:27:41;5;5;
65012;PMS5003;51715;39.432;-77.518;2023-12-20T04:30:10;5;5;
65012;PMS5003;51715;39.432;-77.518;2023-12-20T04:32:40;5;5;
65012;PMS5003;51715;39.432;-77.518;2023-12-20T04:35:08;8;8;
65012;PMS5003;51715;39.432;-77.518;2023-12-20T04:37:37;7;7;
65012;PMS5003;51715;39.432;-77.518;2023-12-20T04:40:07;6;6;
65012;PMS5003;51715;39.432;-77.518;2023-12-20T04:42:37;5;5;
65012;PMS5003;51715;39.432;-77.518;2023-12-20T04:45:09;7;6;
65012;PMS5003;51715;39.432;-77.518;2023-12-20T04:47:37;6;5;
65012;PMS5003;51715;39.432;-77.518;2023-12-20T04:50:06;9;7;
65012;PMS5003;51715;39.432;-77.518;2023-12-20T04:52:37;6;6;
65012;PMS5003;51715;39.432;-77.518;2023-12-20T04:55:06;8;8;
65012;PMS5003;51715;39.432;-77.518;2023-12-20T04:57:35;10;8;
65012;PMS5003;51715;39.432;-77.518;2023-12-20T05:00:07;11;9;
65012;PMS5003;51715;39.432;-77.518;2023-12-20T05:04:05;8;8;
65012;PMS5003;51715;39.432;-77.518;2023-12-20T05:06:34;7;7;
65012;PMS5003;51715;39.432;-77.518;2023-12-20T05:09:03;8;8;
65012;PMS5003;51715;39.432;-77.518;2023-12-20T05:11:31;9;7;
65012;PMS5003;51715;39.432;-77.518;2023-12-20T05:14:01;5;5;
65012;PMS5003;51715;39.432;-77.518;2023-12-20T05:16:30;8;7;
65012;PMS5003;51715;39.432;-77.518;2023-12-20T05:18:59;7;7;
65012;PMS5003;51715;39.432;-77.518;2023-12-20T05:21:28;7;7;
65012;PMS5003;51715;39.432;-77.518;2023-12-20T05:23:56;9;7;
65012;PMS5003;51715;39.432;-77.518;2023-12-20T05:26:25;8;8;
65012;PMS5003;51715;39.432;-77.518;2023-12-20T05:28:54;7;7;
65012;PMS5003;51715;39.432;-77.518;2023-12-20T05:31:24;9;8;
65012;PMS5003;51715;39.432;-77.518;2023-12-20T05:33:53;8;7;
65012;PMS5003;51715;39.432;-77.518;2023-12-20T05:36:23;8;8;
65012;PMS5003;51715;39.432;-77.518;2023-12-20T05:38:52;8;8;
65012;PMS5003;51715;39.432;-77.518;2023-12-20T05:41:20;9;9;
65012;PMS5003;51715;39.432;-77.518;2023-12-20T05:43:48;7;7;
65012;PMS5003;51715;39.432;-77.518;2023-12-20T05:46:19;8;8;
65012;PMS5003;51715;39.432;-77.518;2023-12-20T05:48:48;8;7;
65012;PMS5003;51715;39.432;-77.518;2023-12-20T05:51:17;7;7;
65012;PMS5003;51715;39.432;-77.518;2023-12-20T05:53:45;8;8;
65012;PMS5003;51715;39.432;-77.518;2023-12-20T05:56:13;11;8;
65012;PMS5003;51715;39.432;-77.518;2023-12-20T05:58:42;7;6;
65012;PMS5003;51715;39.432;-77.518;2023-12-20T06:01:11;8;7;
65012;PMS5003;51715;39.432;-77.518;2023-12-20T06:03:42;8;8;
65012;PMS5003;51715;39.432;-77.518;2023-12-20T06:06:10;11;10;
65012;PMS5003;51715;39.432;-77.518;2023-12-20T06:08:40;9;7;
65012;PMS5003;51715;39.432;-77.518;2023-12-20T06:11:08;7;6;
65012;PMS5003;51715;39.432;-77.518;2023-12-20T06:13:38;6;6;
65012;PMS5003;51715;39.432;-77.518;2023-12-20T06:16:07;10;10;
65012;PMS5003;51715;39.432;-77.518;2023-12-20T06:18:35;9;9;
65012;PMS5003;51715;39.432;-77.518;2023-12-20T06:21:04;6;6;
65012;PMS5003;51715;39.432;-77.518;2023-12-20T06:23:33;6;6;
65012;PMS5003;51715;39.432;-77.518;2023-12-20T06:26:02;9;7;
65012;PMS5003;51715;39.432;-77.518;2023-12-20T06:28:30;9;9;
65012;PMS5003;51715;39.432;-77.518;2023-12-20T06:30:59;9;9;
65012;PMS5003;51715;39.432;-77.518;2023-12-20T06:33:27;10;9;
65012;PMS5003;51715;39.432;-77.518;2023-12-20T06:35:56;10;10;
65012;PMS5003;51715;39.432;-77.518;2023-12-20T06:38:26;7;7;
65012;PMS5003;51715;39.432;-77.518;2023-12-20T06:40:55;15;13;
65012;PMS5003;51715;39.432;-77.518;2023-12-20T06:43:23;9;7;
65012;PMS5003;51715;39.432;-77.518;2023-12-20T06:45:51;9;9;
65012;PMS5003;51715;39.432;-77.518;2023-12-20T06:48:19;13;10;
65012;PMS5003;51715;39.432;-77.518;2023-12-20T06:50:47;8;8;
65012;PMS5003;51715;39.432;-77.518;2023-12-20T06:53:15;9;9;
65012;PMS5003;51715;39.432;-77.518;2023-12-20T06:55:43;11;11;
65012;PMS5003;51715;39.432;-77.518;2023-12-20T06:58:11;12;12;
65012;PMS5003;51715;39.432;-77.518;2023-12-20T07:00:40;11;10;
65012;PMS5003;51715;39.432;-77.518;2023-12-20T07:03:10;10;10;
65012;PMS5003;51715;39.432;-77.518;2023-12-20T07:05:40;12;11;
65012;PMS5003;51715;39.432;-77.518;2023-12-20T07:08:09;9;8;
65012;PMS5003;51715;39.432;-77.518;2023-12-20T07:10:37;13;10;
65012;PMS5003;51715;39.432;-77.518;2023-12-20T07:13:06;13;13;
65012;PMS5003;51715;39.432;-77.518;2023-12-20T07:15:35;13;11;
65012;PMS5003;51715;39.432;-77.518;2023-12-20T07:18:05;13;11;
65012;PMS5003;51715;39.432;-77.518;2023-12-20T07:20:34;16;14;
65012;PMS5003;51715;39.432;-77.518;2023-12-20T07:23:02;8;8;
65012;PMS5003;51715;39.432;-77.518;2023-12-20T07:25:33;10;10;
65012;PMS5003;51715;39.432;-77.518;2023-12-20T07:28:00;14;12;
65012;PMS5003;51715;39.432;-77.518;2023-12-20T07:30:29;12;10;
65012;PMS5003;51715;39.432;-77.518;2023-12-20T07:32:57;12;12;
65012;PMS5003;51715;39.432;-77.518;2023-12-20T07:35:25;11;11;
65012;PMS5003;51715;39.432;-77.518;2023-12-20T07:37:54;11;11;
65012;PMS5003;51715;39.432;-77.518;2023-12-20T07:40:22;10;10;
65012;PMS5003;51715;39.432;-77.518;2023-12-20T07:42:50;13;11;
65012;PMS5003;51715;39.432;-77.518;2023-12-20T07:45:21;8;8;
65012;PMS5003;51715;39.432;-77.518;2023-12-20T07:47:50;9;9;
65012;PMS5003;51715;39.432;-77.518;2023-12-20T07:50:20;8;8;
65012;PMS5003;51715;39.432;-77.518;2023-12-20T07:52:50;9;9;
65012;PMS5003;51715;39.432;-77.518;2023-12-20T07:55:19;14;12;
65012;PMS5003;51715;39.432;-77.518;2023-12-20T07:57:48;10;10;
65012;PMS5003;51715;39.432;-77.518;2023-12-20T08:00:16;12;10;
65012;PMS5003;51715;39.432;-77.518;2023-12-20T08:02:47;12;10;
65012;PMS5003;51715;39.432;-77.518;2023-12-20T08:05:16;10;10;
65012;PMS5003;51715;39.432;-77.518;2023-12-20T08:07:45;8;8;
65012;PMS5003;51715;39.432;-77.518;2023-12-20T08:10:13;10;10;
65012;PMS5003;51715;39.432;-77.518;2023-12-20T08:12:41;13;12;
65012;PMS5003;51715;39.432;-77.518;2023-12-20T08:15:10;12;11;
65012;PMS5003;51715;39.432;-77.518;2023-12-20T08:17:38;8;8;
65012;PMS5003;51715;39.432;-77.518;2023-12-20T08:20:07;12;10;
65012;PMS5003;51715;39.432;-77.518;2023-12-20T08:22:36;12;11;
65012;PMS5003;51715;39.432;-77.518;2023-12-20T08:25:04;12;11;
65012;PMS5003;51715;39.432;-77.518;2023-12-20T08:27:34;11;11;
65012;PMS5003;51715;39.432;-77.518;2023-12-20T08:30:08;12;12;
65012;PMS5003;51715;39.432;-77.518;2023-12-20T08:32:37;15;11;
65012;PMS5003;51715;39.432;-77.518;2023-12-20T08:35:06;9;9;
65012;PMS5003;51715;39.432;-77.518;2023-12-20T08:37:35;13;13;
65012;PMS5003;51715;39.432;-77.518;2023-12-20T08:40:04;13;11;
65012;PMS5003;51715;39.432;-77.518;2023-12-20T08:42:34;11;10;
65012;PMS5003;51715;39.432;-77.518;2023-12-20T08:45:02;12;10;
65012;PMS5003;51715;39.432;-77.518;2023-12-20T08:47:32;11;10;
65012;PMS5003;51715;39.432;-77.518;2023-12-20T08:50:02;14;14;
65012;PMS5003;51715;39.432;-77.518;2023-12-20T08:52:32;11;11;
65012;PMS5003;51715;39.432;-77.518;2023-12-20T08:55:01;11;10;
65012;PMS5003;51715;39.432;-77.518;2023-12-20T08:57:30;11;11;
65012;PMS5003;51715;39.432;-77.518;2023-12-20T08:59:59;14;13;
65012;PMS5003;51715;39.432;-77.518;2023-12-20T09:02:28;10;10;
65012;PMS5003;51715;39.432;-77.518;2023-12-20T09:04:58;13;12;
65012;PMS5003;51715;39.432;-77.518;2023-12-20T09:07:26;11;10;
65012;PMS5003;51715;39.432;-77.518;2023-12-20T09:09:55;10;10;
65012;PMS5003;51715;39.432;-77.518;2023-12-20T09:12:24;12;12;
65012;PMS5003;51715;39.432;-77.518;2023-12-20T09:14:51;13;13;
65012;PMS5003;51715;39.432;-77.518;2023-12-20T09:17:20;11;11;
65012;PMS5003;51715;39.432;-77.518;2023-12-20T09:19:48;17;14;
65012;PMS5003;51715;39.432;-77.518;2023-12-20T09:22:17;14;14;
65012;PMS5003;51715;39.432;-77.518;2023-12-20T09:24:45;11;10;
65012;PMS5003;51715;39.432;-77.518;2023-12-20T09:27:13;12;12;
65012;PMS5003;51715;39.432;-77.518;2023-12-20T09:29:42;12;12;
65012;PMS5003;51715;39.432;-77.518;2023-12-20T09:32:11;10;10;
65012;PMS5003;51715;39.432;-77.518;2023-12-20T09:34:39;14;11;
65012;PMS5003;51715;39.432;-77.518;2023-12-20T09:37:07;12;12;
65012;PMS5003;51715;39.432;-77.518;2023-12-20T09:39:36;14;11;
65012;PMS5003;51715;39.432;-77.518;2023-12-20T09:42:05;9;9;
65012;PMS5003;51715;39.432;-77.518;2023-12-20T09:44:34;12;10;
65012;PMS5003;51715;39.432;-77.518;2023-12-20T09:47:03;9;9;
65012;PMS5003;51715;39.432;-77.518;2023-12-20T09:49:32;12;11;
65012;PMS5003;51715;39.432;-77.518;2023-12-20T09:52:01;9;9;
65012;PMS5003;51715;39.432;-77.518;2023-12-20T09:54:34;10;10;
65012;PMS5003;51715;39.432;-77.518;2023-12-20T09:57:02;16;14;
65012;PMS5003;51715;39.432;-77.518;2023-12-20T09:59:31;11;10;
65012;PMS5003;51715;39.432;-77.518;2023-12-20T10:01:59;17;12;
65012;PMS5003;51715;39.432;-77.518;2023-12-20T10:04:35;9;9;
65012;PMS5003;51715;39.432;-77.518;2023-12-20T10:07:04;12;12;
65012;PMS5003;51715;39.432;-77.518;2023-12-20T10:09:32;13;12;
65012;PMS5003;51715;39.432;-77.518;2023-12-20T10:12:01;8;8;
65012;PMS5003;51715;39.432;-77.518;2023-12-20T10:14:29;11;11;
65012;PMS5003;51715;39.432;-77.518;2023-12-20T10:17:02;17;13;
65012;PMS5003;51715;39.432;-77.518;2023-12-20T10:19:30;12;12;
65012;PMS5003;51715;39.432;-77.518;2023-12-20T10:22:00;16;14;
65012;PMS5003;51715;39.432;-77.518;2023-12-20T10:24:31;15;12;
65012;PMS5003;51715;39.432;-77.518;2023-12-20T10:27:03;13;13;
65012;PMS5003;51715;39.432;-77.518;2023-12-20T10:29:34;10;10;
65012;PMS5003;51715;39.432;-77.518;2023-12-20T10:32:21;10;10;
65012;PMS5003;51715;39.432;-77.518;2023-12-20T10:34:51;12;12;
65012;PMS5003;51715;39.432;-77.518;2023-12-20T10:37:20;13;13;
65012;PMS5003;51715;39.432;-77.518;2023-12-20T10:39:49;14;13;
65012;PMS5003;51715;39.432;-77.518;2023-12-20T10:42:18;11;11;
65012;PMS5003;51715;39.432;-77.518;2023-12-20T10:44:49;11;10;
65012;PMS5003;51715;39.432;-77.518;2023-12-20T10:47:19;12;11;
65012;PMS5003;51715;39.432;-77.518;2023-12-20T10:49:49;15;14;
65012;PMS5003;51715;39.432;-77.518;2023-12-20T10:52:19;14;12;
65012;PMS5003;51715;39.432;-77.518;2023-12-20T10:54:50;13;12;
65012;PMS5003;51715;39.432;-77.518;2023-12-20T10:57:19;13;11;
65012;PMS5003;51715;39.432;-77.518;2023-12-20T10:59:48;10;10;
65012;PMS5003;51715;39.432;-77.518;2023-12-20T11:02:21;13;12;
65012;PMS5003;51715;39.432;-77.518;2023-12-20T11:04:52;17;15;
65012;PMS5003;51715;39.432;-77.518;2023-12-20T11:07:28;9;9;
65012;PMS5003;51715;39.432;-77.518;2023-12-20T11:10:03;10;10;
65012;PMS5003;51715;39.432;-77.518;2023-12-20T11:12:43;10;9;
65012;PMS5003;51715;39.432;-77.518;2023-12-20T11:15:18;11;11;
65012;PMS5003;51715;39.432;-77.518;2023-12-20T11:17:54;15;13;
65012;PMS5003;51715;39.432;-77.518;2023-12-20T11:20:23;12;10;
65012;PMS5003;51715;39.432;-77.518;2023-12-20T11:22:52;16;16;
65012;PMS5003;51715;39.432;-77.518;2023-12-20T11:25:25;15;15;
65012;PMS5003;51715;39.432;-77.518;2023-12-20T11:28:07;16;14;
65012;PMS5003;51715;39.432;-77.518;2023-12-20T11:30:51;15;14;
65012;PMS5003;51715;39.432;-77.518;2023-12-20T11:33:21;16;14;
65012;PMS5003;51715;39.432;-77.518;2023-12-20T11:35:51;13;12;
65012;PMS5003;51715;39.432;-77.518;2023-12-20T11:38:22;16;16;
65012;PMS5003;51715;39.432;-77.518;2023-12-20T11:40:50;15;15;
65012;PMS5003;51715;39.432;-77.518;2023-12-20T11:43:35;15;14;
65012;PMS5003;51715;39.432;-77.518;2023-12-20T11:46:07;15;12;
65012;PMS5003;51715;39.432;-77.518;2023-12-20T11:48:38;10;10;
65012;PMS5003;51715;39.432;-77.518;2023-12-20T11:51:10;12;11;
65012;PMS5003;51715;39.432;-77.518;2023-12-20T11:53:38;12;11;
65012;PMS5003;51715;39.432;-77.518;2023-12-20T11:56:07;13;10;
65012;PMS5003;51715;39.432;-77.518;2023-12-20T11:58:37;15;11;
65012;PMS5003;51715;39.432;-77.518;2023-12-20T12:01:06;13;13;
65012;PMS5003;51715;39.432;-77.518;2023-12-20T12:03:34;9;9;
65012;PMS5003;51715;39.432;-77.518;2023-12-20T12:06:03;12;10;
65012;PMS5003;51715;39.432;-77.518;2023-12-20T12:08:32;14;14;
65012;PMS5003;51715;39.432;-77.518;2023-12-20T12:11:00;11;11;
65012;PMS5003;51715;39.432;-77.518;2023-12-20T12:13:28;13;13;
65012;PMS5003;51715;39.432;-77.518;2023-12-20T12:15:58;7;7;
65012;PMS5003;51715;39.432;-77.518;2023-12-20T12:18:27;16;13;
65012;PMS5003;51715;39.432;-77.518;2023-12-20T12:21:00;10;9;
65012;PMS5003;51715;39.432;-77.518;2023-12-20T12:23:28;13;12;
65012;PMS5003;51715;39.432;-77.518;2023-12-20T12:25:56;11;11;
65012;PMS5003;51715;39.432;-77.518;2023-12-20T12:28:25;10;10;
65012;PMS5003;51715;39.432;-77.518;2023-12-20T12:30:57;11;11;
65012;PMS5003;51715;39.432;-77.518;2023-12-20T12:33:26;13;10;
65012;PMS5003;51715;39.432;-77.518;2023-12-20T12:35:56;16;15;
65012;PMS5003;51715;39.432;-77.518;2023-12-20T12:38:27;11;11;
65012;PMS5003;51715;39.432;-77.518;2023-12-20T12:40:57;13;11;
65012;PMS5003;51715;39.432;-77.518;2023-12-20T12:43:26;11;11;
65012;PMS5003;51715;39.432;-77.518;2023-12-20T12:45:55;10;9;
65012;PMS5003;51715;39.432;-77.518;2023-12-20T12:48:23;11;11;
65012;PMS5003;51715;39.432;-77.518;2023-12-20T12:50:51;12;12;
65012;PMS5003;51715;39.432;-77.518;2023-12-20T12:53:20;10;10;
65012;PMS5003;51715;39.432;-77.518;2023-12-20T12:55:49;10;9;
65012;PMS5003;51715;39.432;-77.518;2023-12-20T12:58:16;13;13;
65012;PMS5003;51715;39.432;-77.518;2023-12-20T13:00:45;11;10;
65012;PMS5003;51715;39.432;-77.518;2023-12-20T13:03:14;12;9;
65012;PMS5003;51715;39.432;-77.518;2023-12-20T13:05:42;11;11;
65012;PMS5003;51715;39.432;-77.518;2023-12-20T13:08:10;13;12;
65012;PMS5003;51715;39.432;-77.518;2023-12-20T13:10:40;12;12;
65012;PMS5003;51715;39.432;-77.518;2023-12-20T13:13:08;13;12;
65012;PMS5003;51715;39.432;-77.518;2023-12-20T13:15:36;15;15;
65012;PMS5003;51715;39.432;-77.518;2023-12-20T13:18:06;16;16;
65012;PMS5003;51715;39.432;-77.518;2023-12-20T13:20:35;15;14;
65012;PMS5003;51715;39.432;-77.518;2023-12-20T13:23:03;17;14;
65012;PMS5003;51715;39.432;-77.518;2023-12-20T13:25:32;13;12;
65012;PMS5003;51715;39.432;-77.518;2023-12-20T13:28:00;12;10;
65012;PMS5003;51715;39.432;-77.518;2023-12-20T13:30:30;11;11;
65012;PMS5003;51715;39.432;-77.518;2023-12-20T13:32:59;13;13;
65012;PMS5003;51715;39.432;-77.518;2023-12-20T13:35:28;15;14;
65012;PMS5003;51715;39.432;-77.518;2023-12-20T13:37:56;12;12;
65012;PMS5003;51715;39.432;-77.518;2023-12-20T13:40:26;15;13;
65012;PMS5003;51715;39.432;-77.518;2023-12-20T13:42:54;16;15;
65012;PMS5003;51715;39.432;-77.518;2023-12-20T13:45:24;13;10;
65012;PMS5003;51715;39.432;-77.518;2023-12-20T13:47:52;17;14;
65012;PMS5003;51715;39.432;-77.518;2023-12-20T13:50:20;11;10;
65012;PMS5003;51715;39.432;-77.518;2023-12-20T13:52:48;10;10;
65012;PMS5003;51715;39.432;-77.518;2023-12-20T13:55:16;12;12;
65012;PMS5003;51715;39.432;-77.518;2023-12-20T13:57:44;12;10;
65012;PMS5003;51715;39.432;-77.518;2023-12-20T14:00:13;12;12;
65012;PMS5003;51715;39.432;-77.518;2023-12-20T14:02:42;8;8;
65012;PMS5003;51715;39.432;-77.518;2023-12-20T14:05:11;8;8;
65012;PMS5003;51715;39.432;-77.518;2023-12-20T14:07:40;13;12;
65012;PMS5003;51715;39.432;-77.518;2023-12-20T14:10:09;8;8;
65012;PMS5003;51715;39.432;-77.518;2023-12-20T14:12:38;8;8;
65012;PMS5003;51715;39.432;-77.518;2023-12-20T14:15:07;10;10;
65012;PMS5003;51715;39.432;-77.518;2023-12-20T14:17:35;6;6;
65012;PMS5003;51715;39.432;-77.518;2023-12-20T14:20:05;7;7;
65012;PMS5003;51715;39.432;-77.518;2023-12-20T14:22:34;9;8;
65012;PMS5003;51715;39.432;-77.518;2023-12-20T14:25:05;9;7;
65012;PMS5003;51715;39.432;-77.518;2023-12-20T14:27:35;18;12;
65012;PMS5003;51715;39.432;-77.518;2023-12-20T14:30:06;10;9;
65012;PMS5003;51715;39.432;-77.518;2023-12-20T14:32:35;8;8;
65012;PMS5003;51715;39.432;-77.518;2023-12-20T14:35:04;8;8;
65012;PMS5003;51715;39.432;-77.518;2023-12-20T14:37:33;12;10;
65012;PMS5003;51715;39.432;-77.518;2023-12-20T14:40:04;9;9;
65012;PMS5003;51715;39.432;-77.518;2023-12-20T14:42:34;9;9;
65012;PMS5003;51715;39.432;-77.518;2023-12-20T14:45:05;9;9;
65012;PMS5003;51715;39.432;-77.518;2023-12-20T14:47:34;8;8;
65012;PMS5003;51715;39.432;-77.518;2023-12-20T14:50:05;11;9;
65012;PMS5003;51715;39.432;-77.518;2023-12-20T14:52:34;9;8;
65012;PMS5003;51715;39.432;-77.518;2023-12-20T14:55:03;9;8;
65012;PMS5003;51715;39.432;-77.518;2023-12-20T14:57:32;9;9;
65012;PMS5003;51715;39.432;-77.518;2023-12-20T14:59:59;9;9;
65012;PMS5003;51715;39.432;-77.518;2023-12-20T15:02:27;8;7;
65012;PMS5003;51715;39.432;-77.518;2023-12-20T15:04:56;13;11;
65012;PMS5003;51715;39.432;-77.518;2023-12-20T15:07:24;10;10;
65012;PMS5003;51715;39.432;-77.518;2023-12-20T15:09:52;8;8;
65012;PMS5003;51715;39.432;-77.518;2023-12-20T15:12:24;9;9;
65012;PMS5003;51715;39.432;-77.518;2023-12-20T15:14:53;9;9;
65012;PMS5003;51715;39.432;-77.518;2023-12-20T15:17:21;6;6;
65012;PMS5003;51715;39.432;-77.518;2023-12-20T15:19:49;9;9;
65012;PMS5003;51715;39.432;-77.518;2023-12-20T15:22:18;11;9;
65012;PMS5003;51715;39.432;-77.518;2023-12-20T15:24:46;6;6;
65012;PMS5003;51715;39.432;-77.518;2023-12-20T15:27:16;9;9;
65012;PMS5003;51715;39.432;-77.518;2023-12-20T15:29:43;6;6;
65012;PMS5003;51715;39.432;-77.518;2023-12-20T15:32:12;8;8;
65012;PMS5003;51715;39.432;-77.518;2023-12-20T15:34:41;11;9;
65012;PMS5003;51715;39.432;-77.518;2023-12-20T15:37:08;8;8;
65012;PMS5003;51715;39.432;-77.518;2023-12-20T15:39:36;6;6;
65012;PMS5003;51715;39.432;-77.518;2023-12-20T15:42:05;9;7;
65012;PMS5003;51715;39.432;-77.518;2023-12-20T15:44:36;5;5;
65012;PMS5003;51715;39.432;-77.518;2023-12-20T15:47:04;9;9;
65012;PMS5003;51715;39.432;-77.518;2023-12-20T15:49:33;10;10;
65012;PMS5003;51715;39.432;-77.518;2023-12-20T15:52:02;9;8;
65012;PMS5003;51715;39.432;-77.518;2023-12-20T15:54:30;8;7;
65012;PMS5003;51715;39.432;-77.518;2023-12-20T15:56:58;8;8;
65012;PMS5003;51715;39.432;-77.518;2023-12-20T15:59:27;7;7;
65012;PMS5003;51715;39.432;-77.518;2023-12-20T16:01:55;8;8;
65012;PMS5003;51715;39.432;-77.518;2023-12-20T16:04:25;9;9;
65012;PMS5003;51715;39.432;-77.518;2023-12-20T16:06:53;6;6;
65012;PMS5003;51715;39.432;-77.518;2023-12-20T16:09:22;10;6;
65012;PMS5003;51715;39.432;-77.518;2023-12-20T16:11:49;6;5;
65012;PMS5003;51715;39.432;-77.518;2023-12-20T16:14:17;7;7;
65012;PMS5003;51715;39.432;-77.518;2023-12-20T16:16:45;7;7;
65012;PMS5003;51715;39.432;-77.518;2023-12-20T16:19:14;7;6;